createdAt,value
2019-04-20T00:00:51.141Z,72.30
2019-04-20T00:03:18.058Z,72.40
2019-04-20T00:05:46.972Z,72.30
2019-04-20T00:08:21.717Z,72.60
2019-04-20T00:10:56.138Z,72.80
2019-04-20T00:13:24.534Z,72.90
2019-04-20T00:15:47.205Z,73.00
2019-04-20T00:18:16.994Z,73.00
2019-04-20T00:21:00.249Z,73.40
2019-04-20T00:23:43.036Z,74.20
2019-04-20T00:26:32.206Z,73.50
2019-04-20T00:29:06.970Z,73.80
2019-04-20T00:31:39.322Z,74.00
2019-04-20T00:34:02.687Z,74.10
2019-04-20T00:36:22.209Z,74.60
2019-04-20T00:38:55.078Z,74.90
2019-04-20T00:41:23.035Z,74.80
2019-04-20T00:43:53.277Z,74.90
2019-04-20T00:46:29.233Z,75.20
2019-04-20T00:49:00.790Z,75.90
2019-04-20T00:51:41.914Z,75.30
2019-04-20T00:53:55.864Z,75.40
2019-04-20T00:56:24.488Z,75.40
2019-04-20T00:59:09.242Z,75.50
2019-04-20T01:01:42.250Z,75.50
2019-04-20T01:04:14.823Z,75.80
2019-04-20T01:07:01.211Z,75.60
2019-04-20T01:09:41.752Z,75.60
2019-04-20T01:12:16.410Z,75.80
2019-04-20T01:14:48.715Z,76.10
2019-04-20T01:17:12.161Z,76.00
2019-04-20T01:19:41.355Z,76.20
2019-04-20T01:22:13.585Z,76.30
2019-04-20T01:24:44.881Z,76.20
2019-04-20T01:27:23.754Z,76.40
2019-04-20T01:29:48.792Z,76.30
2019-04-20T01:32:22.368Z,76.30
2019-04-20T01:34:52.382Z,76.50
2019-04-20T01:37:27.452Z,76.60
2019-04-20T01:39:48.498Z,76.80
2019-04-20T01:42:13.087Z,76.60
2019-04-20T01:44:46.637Z,76.80
2019-04-20T01:47:13.359Z,76.90
2019-04-20T01:49:43.618Z,76.90
2019-04-20T01:52:20.144Z,77.60
2019-04-20T01:55:06.591Z,77.20
2019-04-20T01:57:29.838Z,77.20
2019-04-20T02:00:07.434Z,77.10
2019-04-20T02:02:43.744Z,77.20
2019-04-20T02:05:16.922Z,77.00
2019-04-20T02:07:46.562Z,77.30
2019-04-20T02:10:13.880Z,77.40
2019-04-20T02:13:03.377Z,77.50
2019-04-20T02:15:39.959Z,77.50
2019-04-20T02:18:16.223Z,77.70
2019-04-20T02:21:12.182Z,77.60
2019-04-20T02:23:34.720Z,77.40
2019-04-20T02:25:52.292Z,77.60
2019-04-20T02:28:37.224Z,77.50
2019-04-20T02:33:58.076Z,77.70
2019-04-20T02:36:40.241Z,77.70
2019-04-20T02:51:54.729Z,79.40
2019-04-20T02:54:26.184Z,79.50
2019-04-20T02:57:14.272Z,79.90
2019-04-20T03:01:45.564Z,80.30
2019-04-20T03:04:00.750Z,80.60
2019-04-20T03:06:36.368Z,80.80
2019-04-20T03:09:21.418Z,80.90
2019-04-20T03:14:32.453Z,81.30
2019-04-20T03:17:13.881Z,81.80
2019-04-20T03:19:36.222Z,81.70
2019-04-20T03:22:09.437Z,82.30
2019-04-20T03:24:59.094Z,82.80
2019-04-20T03:27:55.261Z,83.00
2019-04-20T03:33:44.845Z,83.40
2019-04-20T03:36:06.096Z,84.50
2019-04-20T03:38:24.600Z,83.90
2019-04-20T03:40:45.279Z,84.00
2019-04-20T03:43:02.668Z,84.00
2019-04-20T03:45:41.204Z,84.50
2019-04-20T03:48:16.104Z,85.10
2019-04-20T03:50:54.980Z,85.40
2019-04-20T03:53:27.843Z,85.70
2019-04-20T03:56:28.340Z,85.80
2019-04-20T03:59:04.456Z,86.00
2019-04-20T04:02:14.860Z,86.20
2019-04-20T04:04:44.312Z,86.50
2019-04-20T04:06:57.716Z,86.40
2019-04-20T04:09:32.795Z,86.50
2019-04-20T04:12:05.699Z,86.50
2019-04-20T04:14:23.962Z,87.00
2019-04-20T04:16:57.031Z,87.20
2019-04-20T04:19:28.441Z,87.40
2019-04-20T04:22:11.147Z,87.80
2019-04-20T04:24:35.385Z,87.80
2019-04-20T04:27:05.704Z,88.10
2019-04-20T04:29:42.086Z,88.30
2019-04-20T04:32:18.704Z,88.30
2019-04-20T04:34:44.393Z,88.50
2019-04-20T04:37:18.010Z,88.50
2019-04-20T04:39:49.327Z,88.80
2019-04-20T04:42:22.513Z,88.80
2019-04-20T04:44:40.062Z,88.70
2019-04-20T04:47:03.133Z,88.90
2019-04-20T04:49:35.081Z,88.90
2019-04-20T04:52:06.354Z,89.00
2019-04-20T04:54:43.501Z,89.20
2019-04-20T04:57:01.103Z,89.20
2019-04-20T04:59:29.837Z,89.10
2019-04-20T05:01:59.806Z,89.10
2019-04-20T05:05:19.372Z,89.20
2019-04-20T05:07:43.847Z,89.30
2019-04-20T05:10:01.293Z,89.30
2019-04-20T05:12:33.173Z,89.20
2019-04-20T05:15:07.636Z,89.20
2019-04-20T05:17:54.439Z,89.00
2019-04-20T05:20:18.077Z,88.90
2019-04-20T05:22:58.716Z,88.90
2019-04-20T05:25:52.575Z,88.80
2019-04-20T05:28:13.046Z,88.90
2019-04-20T05:30:33.617Z,88.80
2019-04-20T05:33:07.806Z,88.50
2019-04-20T05:35:58.898Z,88.40
2019-04-20T05:41:11.453Z,88.10
2019-04-20T05:43:41.671Z,88.00
2019-04-20T05:46:25.347Z,87.80
2019-04-20T05:48:50.503Z,87.30
2019-04-20T05:51:25.456Z,87.10
2019-04-20T05:53:47.477Z,87.00
2019-04-20T05:56:21.425Z,86.70
2019-04-20T05:58:53.077Z,86.60
2019-04-20T06:01:20.208Z,86.10
2019-04-20T06:03:48.817Z,85.70
2019-04-20T06:06:25.999Z,85.60
2019-04-20T06:08:53.787Z,84.60
2019-04-20T06:11:24.641Z,84.50
2019-04-20T06:14:03.500Z,84.30
2019-04-20T06:17:19.170Z,83.90
2019-04-20T06:19:42.258Z,83.40
2019-04-20T06:22:33.740Z,82.80
2019-04-20T06:25:39.651Z,82.80
2019-04-20T06:27:52.769Z,82.70
2019-04-20T06:30:19.100Z,82.60
2019-04-20T06:33:38.792Z,82.10
2019-04-20T06:38:49.737Z,81.30
2019-04-20T06:41:05.356Z,80.80
2019-04-20T06:43:31.497Z,80.30
2019-04-20T06:46:04.392Z,80.00
2019-04-20T06:48:36.934Z,79.70
2019-04-20T06:50:57.064Z,79.80
2019-04-20T06:53:47.569Z,79.30
2019-04-20T06:56:35.819Z,78.80
2019-04-20T06:59:04.378Z,78.80
2019-04-20T07:01:32.375Z,78.50
2019-04-20T07:04:22.425Z,78.20
2019-04-20T07:09:06.427Z,78.00
2019-04-20T07:11:34.311Z,76.90
2019-04-20T07:13:51.921Z,77.30
2019-04-20T07:16:44.762Z,76.90
2019-04-20T07:19:20.397Z,76.10
2019-04-20T07:22:20.160Z,75.40
2019-04-20T07:24:42.918Z,75.40
2019-04-20T07:27:08.078Z,74.90
2019-04-20T07:29:42.760Z,74.40
2019-04-20T07:32:01.855Z,74.60
2019-04-20T07:34:38.689Z,73.20
2019-04-20T07:38:05.221Z,72.40
2019-04-20T07:40:07.375Z,72.50
2019-04-20T07:42:51.907Z,72.40
2019-04-20T07:45:32.085Z,72.50
2019-04-20T07:48:01.379Z,71.70
2019-04-20T07:50:21.793Z,71.00
2019-04-20T07:52:46.258Z,71.20
2019-04-20T07:55:39.048Z,70.10
2019-04-20T07:57:55.033Z,70.90
2019-04-20T08:00:41.888Z,68.80
2019-04-20T08:03:35.999Z,68.00
2019-04-20T08:06:11.624Z,68.30
2019-04-20T08:08:54.081Z,67.80
2019-04-20T08:11:21.137Z,67.70
2019-04-20T08:14:02.370Z,67.80
2019-04-20T08:16:43.928Z,67.40
2019-04-20T08:18:55.756Z,67.00
2019-04-20T08:21:33.345Z,66.50
2019-04-20T08:23:55.922Z,66.20
2019-04-20T08:26:17.626Z,66.60
2019-04-20T08:28:52.885Z,64.50
2019-04-20T08:31:46.316Z,63.20
2019-04-20T08:34:27.902Z,64.30
2019-04-20T08:36:59.915Z,63.00
2019-04-20T08:39:38.039Z,64.50
2019-04-20T08:42:02.015Z,62.10
2019-04-20T08:44:51.400Z,60.90
2019-04-20T08:47:14.848Z,59.40
2019-04-20T08:54:26.679Z,57.80
2019-04-20T08:56:47.951Z,58.00
2019-04-20T08:59:09.990Z,58.10
2019-04-20T09:01:40.348Z,56.10
2019-04-20T09:04:17.688Z,56.90
2019-04-20T09:06:52.226Z,57.00
2019-04-20T09:09:41.375Z,56.60
2019-04-20T09:12:05.266Z,56.60
2019-04-20T09:14:21.264Z,55.10
2019-04-20T09:16:57.072Z,54.30
2019-04-20T09:19:34.851Z,54.10
2019-04-20T09:22:24.462Z,54.40
2019-04-20T09:25:13.109Z,54.00
2019-04-20T09:27:25.361Z,54.30
2019-04-20T09:30:00.221Z,53.00
2019-04-20T09:32:36.044Z,51.30
2019-04-20T09:35:07.777Z,51.00
2019-04-20T09:37:43.132Z,50.70
2019-04-20T09:40:35.327Z,50.60
2019-04-20T09:42:53.705Z,48.30
2019-04-20T09:45:37.387Z,49.50
2019-04-20T09:48:01.712Z,47.30
2019-04-20T09:50:50.014Z,47.10
2019-04-20T09:53:17.334Z,47.30
2019-04-20T09:55:50.662Z,47.60
2019-04-20T09:58:15.751Z,46.50
2019-04-20T10:00:58.224Z,44.90
2019-04-20T10:03:14.106Z,44.30
2019-04-20T10:05:43.383Z,44.40
2019-04-20T10:08:13.540Z,43.50
2019-04-20T10:10:45.402Z,43.50
2019-04-20T10:13:13.285Z,43.80
2019-04-20T10:15:42.140Z,43.90
2019-04-20T10:18:12.031Z,44.40
2019-04-20T10:20:42.280Z,43.90
2019-04-20T10:23:30.829Z,42.90
2019-04-20T10:26:00.706Z,43.00
2019-04-20T10:28:29.790Z,41.90
2019-04-20T10:30:59.026Z,42.60
2019-04-20T10:33:27.944Z,42.50
2019-04-20T10:35:59.547Z,42.90
2019-04-20T10:38:32.863Z,42.00
2019-04-20T10:41:08.166Z,43.00
2019-04-20T10:43:31.184Z,44.00
2019-04-20T10:46:00.308Z,43.30
2019-04-20T10:48:33.972Z,43.60
2019-04-20T10:50:59.503Z,43.40
2019-04-20T10:53:28.244Z,43.50
2019-04-20T10:55:57.778Z,42.00
2019-04-20T10:58:27.451Z,41.10
2019-04-20T11:00:59.741Z,41.80
2019-04-20T11:03:28.876Z,40.80
2019-04-20T11:05:58.529Z,41.40
2019-04-20T11:08:28.600Z,42.00
2019-04-20T11:11:07.066Z,40.10
2019-04-20T11:13:27.846Z,42.20
2019-04-20T11:15:56.716Z,41.00
2019-04-20T11:18:25.390Z,39.60
2019-04-20T11:20:55.222Z,40.80
2019-04-20T11:23:24.422Z,41.10
2019-04-20T11:25:53.387Z,41.30
2019-04-20T11:28:22.082Z,41.60
2019-04-20T11:30:52.082Z,40.60
2019-04-20T11:33:20.868Z,39.60
2019-04-20T11:35:49.959Z,40.90
2019-04-20T11:38:19.717Z,40.10
2019-04-20T11:41:01.499Z,38.90
2019-04-20T11:43:19.813Z,39.60
2019-04-20T11:45:48.969Z,39.10
2019-04-20T11:48:19.059Z,40.60
2019-04-20T11:50:47.958Z,37.40
2019-04-20T11:53:17.457Z,38.20
2019-04-20T11:55:46.600Z,38.20
2019-04-20T11:58:36.050Z,37.20
2019-04-20T12:01:22.532Z,37.80
2019-04-20T12:04:00.325Z,38.10
2019-04-20T12:06:21.143Z,38.20
2019-04-20T12:08:49.981Z,34.80
2019-04-20T12:11:26.577Z,35.20
2019-04-20T12:13:49.078Z,35.70
2019-04-20T12:16:17.809Z,35.80
2019-04-20T12:18:46.516Z,35.20
2019-04-20T12:21:15.207Z,34.60
2019-04-20T12:23:44.523Z,34.40
2019-04-20T12:26:13.390Z,35.00
2019-04-20T12:28:43.276Z,35.10
2019-04-20T12:31:19.650Z,34.20
2019-04-20T12:33:42.523Z,35.10
2019-04-20T12:36:12.277Z,33.80
2019-04-20T12:38:41.335Z,35.10
2019-04-20T12:41:12.563Z,35.80
2019-04-20T12:43:41.556Z,35.60
2019-04-20T12:46:23.425Z,36.30
2019-04-20T12:48:53.507Z,36.00
2019-04-20T12:51:26.348Z,36.50
2019-04-20T12:53:52.888Z,37.20
2019-04-20T12:56:22.403Z,36.50
2019-04-20T12:58:51.669Z,36.30
2019-04-20T13:01:22.322Z,35.80
2019-04-20T13:03:50.919Z,36.00
2019-04-20T13:06:19.672Z,36.30
2019-04-20T13:08:52.246Z,38.00
2019-04-20T13:11:26.731Z,35.80
2019-04-20T13:14:52.669Z,36.10
2019-04-20T13:17:22.182Z,36.40
2019-04-20T13:19:51.254Z,35.30
2019-04-20T13:22:39.525Z,35.10
2019-04-20T13:25:08.297Z,35.10
2019-04-20T13:27:37.075Z,35.00
2019-04-20T13:30:07.063Z,34.30
2019-04-20T13:32:36.193Z,34.70
2019-04-20T13:35:24.195Z,33.90
2019-04-20T13:37:54.109Z,34.70
2019-04-20T13:40:23.856Z,34.70
2019-04-20T13:42:53.901Z,34.90
2019-04-20T13:45:22.820Z,34.20
2019-04-20T13:47:52.743Z,35.00
2019-04-20T13:50:22.168Z,34.80
2019-04-20T13:53:11.606Z,35.30
2019-04-20T13:55:40.527Z,33.80
2019-04-20T13:58:15.997Z,33.40
2019-04-20T14:00:59.108Z,33.10
2019-04-20T14:03:30.059Z,34.20
2019-04-20T14:05:58.963Z,32.20
2019-04-20T14:08:31.503Z,31.30
2019-04-20T14:11:00.181Z,31.50
2019-04-20T14:13:36.590Z,31.60
2019-04-20T14:15:59.291Z,30.60
2019-04-20T14:18:29.051Z,29.60
2019-04-20T14:20:58.329Z,29.70
2019-04-20T14:23:28.189Z,30.50
2019-04-20T14:25:56.937Z,31.00
2019-04-20T14:28:29.110Z,30.20
2019-04-20T14:30:58.175Z,29.60
2019-04-20T14:33:28.535Z,30.10
2019-04-20T14:35:57.351Z,30.00
2019-04-20T14:38:26.426Z,30.10
2019-04-20T14:40:55.183Z,30.00
2019-04-20T14:43:24.924Z,29.70
2019-04-20T14:45:54.561Z,30.30
2019-04-20T14:48:24.863Z,29.90
2019-04-20T14:50:53.913Z,30.50
2019-04-20T14:53:23.278Z,30.20
2019-04-20T14:55:53.364Z,29.30
2019-04-20T14:58:42.150Z,29.30
2019-04-20T15:01:30.342Z,29.50
2019-04-20T15:04:04.759Z,28.70
2019-04-20T15:06:29.834Z,29.00
2019-04-20T15:08:58.821Z,29.50
2019-04-20T15:11:27.670Z,29.30
2019-04-20T15:14:00.704Z,29.40
2019-04-20T15:16:30.655Z,28.30
2019-04-20T15:19:17.801Z,28.50
2019-04-20T15:21:49.379Z,28.20
2019-04-20T15:24:18.134Z,29.50
2019-04-20T15:26:46.779Z,30.00
2019-04-20T15:29:15.491Z,30.30
2019-04-20T15:31:44.223Z,30.00
2019-04-20T15:34:12.975Z,30.30
2019-04-20T15:36:42.271Z,30.10
2019-04-20T15:39:11.380Z,29.90
2019-04-20T15:41:41.060Z,29.30
2019-04-20T15:44:11.139Z,29.10
2019-04-20T15:46:40.473Z,29.00
2019-04-20T15:49:10.460Z,28.80
2019-04-20T15:51:39.806Z,28.80
2019-04-20T15:54:09.511Z,29.10
2019-04-20T15:56:42.495Z,29.30
2019-04-20T15:59:08.728Z,28.70
2019-04-20T16:01:45.139Z,28.80
2019-04-20T16:04:37.549Z,29.90
2019-04-20T16:07:03.429Z,30.30
2019-04-20T16:09:33.625Z,30.70
2019-04-20T16:12:02.740Z,31.00
2019-04-20T16:14:31.530Z,30.90
2019-04-20T16:17:00.706Z,30.70
2019-04-20T16:19:40.693Z,31.10
2019-04-20T16:22:01.671Z,31.00
2019-04-20T16:24:35.756Z,30.90
2019-04-20T16:27:21.639Z,31.00
2019-04-20T16:29:51.544Z,30.90
2019-04-20T16:32:20.648Z,30.30
2019-04-20T16:34:50.591Z,31.50
2019-04-20T16:37:20.169Z,31.40
2019-04-20T16:39:50.407Z,31.20
2019-04-20T16:42:20.301Z,30.90
2019-04-20T16:44:49.399Z,31.00
2019-04-20T16:47:18.467Z,30.70
2019-04-20T16:49:48.722Z,31.20
2019-04-20T16:52:18.942Z,31.30
2019-04-20T16:54:48.000Z,31.00
2019-04-20T16:57:17.262Z,31.00
2019-04-20T16:59:50.898Z,32.40
2019-04-20T17:02:17.816Z,32.20
2019-04-20T17:04:47.199Z,33.50
2019-04-20T17:07:29.451Z,33.10
2019-04-20T17:09:58.094Z,33.20
2019-04-20T17:12:28.061Z,33.70
2019-04-20T17:14:58.133Z,33.40
2019-04-20T17:17:27.477Z,34.10
2019-04-20T17:19:57.567Z,34.20
2019-04-20T17:22:27.583Z,34.70
2019-04-20T17:24:58.268Z,35.00
2019-04-20T17:27:46.810Z,35.50
2019-04-20T17:30:35.772Z,35.10
2019-04-20T17:33:08.195Z,36.30
2019-04-20T17:35:49.118Z,36.80
2019-04-20T17:38:08.839Z,36.80
2019-04-20T17:40:56.337Z,37.30
2019-04-20T17:43:18.943Z,37.00
2019-04-20T17:45:48.337Z,36.50
2019-04-20T17:48:26.975Z,37.10
2019-04-20T17:51:00.156Z,36.80
2019-04-20T17:53:29.398Z,37.00
2019-04-20T17:55:53.013Z,36.40
2019-04-20T17:58:28.971Z,36.40
2019-04-20T18:01:20.461Z,37.00
2019-04-20T18:06:25.370Z,37.50
2019-04-20T18:08:56.564Z,37.50
2019-04-20T18:11:15.023Z,37.80
2019-04-20T18:13:39.728Z,38.00
2019-04-20T18:16:40.006Z,38.10
2019-04-20T18:19:06.378Z,38.10
2019-04-20T18:21:52.259Z,38.70
2019-04-20T18:24:46.405Z,38.70
2019-04-20T18:27:06.872Z,39.00
2019-04-20T18:29:40.892Z,39.20
2019-04-20T18:31:59.635Z,39.40
2019-04-20T18:34:38.283Z,39.70
2019-04-20T18:37:12.908Z,39.90
2019-04-20T18:39:43.872Z,39.80
2019-04-20T18:42:14.661Z,40.30
2019-04-20T18:44:56.853Z,40.10
2019-04-20T18:47:28.826Z,40.10
2019-04-20T18:49:50.467Z,40.40
2019-04-20T18:52:09.475Z,40.40
2019-04-20T18:54:42.613Z,40.80
2019-04-20T18:57:14.309Z,41.00
2019-04-20T18:59:42.691Z,41.40
2019-04-20T19:02:13.825Z,41.60
2019-04-20T19:04:40.131Z,42.10
2019-04-20T19:07:10.003Z,42.30
2019-04-20T19:09:39.490Z,42.90
2019-04-20T19:12:12.877Z,43.40
2019-04-20T19:14:56.791Z,44.00
2019-04-20T19:17:58.984Z,44.70
2019-04-20T19:20:25.005Z,45.70
2019-04-20T19:22:52.742Z,46.60
2019-04-20T19:25:27.168Z,47.10
2019-04-20T19:27:55.865Z,47.80
2019-04-20T19:30:34.341Z,48.30
2019-04-20T19:33:11.649Z,49.00
2019-04-20T19:35:33.844Z,49.50
2019-04-20T19:38:06.373Z,49.90
2019-04-20T19:40:40.709Z,50.40
2019-04-20T19:43:09.588Z,50.70
2019-04-20T19:45:48.660Z,51.10
2019-04-20T19:48:12.365Z,51.60
2019-04-20T19:50:53.746Z,52.10
2019-04-20T19:53:22.718Z,52.40
2019-04-20T19:55:58.860Z,52.60
2019-04-20T19:58:32.773Z,53.20
2019-04-20T20:00:52.102Z,53.90
2019-04-20T20:03:21.799Z,54.20
2019-04-20T20:05:53.849Z,54.50
2019-04-20T20:08:25.911Z,55.00
2019-04-20T20:10:52.631Z,55.40
2019-04-20T20:13:27.672Z,55.60
2019-04-20T20:16:00.199Z,56.10
2019-04-20T20:18:35.441Z,56.60
2019-04-20T20:21:23.539Z,57.00
2019-04-20T20:23:43.718Z,57.40
2019-04-20T20:26:23.078Z,57.90
2019-04-20T20:28:50.726Z,58.40
2019-04-20T20:31:23.483Z,58.80
2019-04-20T20:34:00.346Z,59.20
2019-04-20T20:36:45.273Z,60.00
2019-04-20T20:39:14.670Z,60.50
2019-04-20T20:41:48.976Z,60.90
2019-04-20T20:44:18.434Z,61.50
2019-04-20T20:46:44.012Z,62.70
2019-04-20T20:49:21.760Z,62.50
2019-04-20T20:51:54.235Z,63.10
2019-04-20T20:54:22.280Z,63.30
2019-04-20T20:56:48.740Z,63.50
2019-04-20T20:59:14.408Z,63.80
2019-04-20T21:01:48.797Z,64.00
2019-04-20T21:04:09.778Z,64.40
2019-04-20T21:06:38.587Z,64.10
2019-04-20T21:09:08.163Z,64.50
2019-04-20T21:11:38.026Z,64.20
2019-04-20T21:14:06.882Z,64.20
2019-04-20T21:16:42.549Z,64.20
2019-04-20T21:19:21.456Z,63.70
2019-04-20T21:21:46.314Z,64.00
2019-04-20T21:24:17.698Z,63.80
2019-04-20T21:26:44.335Z,63.50
2019-04-20T21:29:15.544Z,63.90
2019-04-20T21:31:56.963Z,62.70
2019-04-20T21:34:18.658Z,62.60
2019-04-20T21:36:45.329Z,62.20
2019-04-20T21:39:20.922Z,62.10
2019-04-20T21:41:50.913Z,61.90
2019-04-20T21:44:21.782Z,61.40
2019-04-20T21:46:50.769Z,61.50
2019-04-20T21:49:31.172Z,61.70
2019-04-20T21:51:54.579Z,61.60
2019-04-20T21:54:16.217Z,61.90
2019-04-20T21:56:54.996Z,62.30
2019-04-20T21:59:24.247Z,62.70
2019-04-20T22:01:56.446Z,62.60
2019-04-20T22:04:19.520Z,62.70
2019-04-20T22:06:46.899Z,62.80
2019-04-20T22:09:15.633Z,62.90
2019-04-20T22:11:44.278Z,63.10
2019-04-20T22:14:17.501Z,63.00
2019-04-20T22:16:49.189Z,62.90
2019-04-20T22:19:27.437Z,62.80
2019-04-20T22:22:00.045Z,63.20
2019-04-20T22:24:34.289Z,62.80
2019-04-20T22:26:58.981Z,62.70
2019-04-20T22:29:16.209Z,62.90
2019-04-20T22:31:52.324Z,62.90
2019-04-20T22:34:20.532Z,62.70
2019-04-20T22:36:48.608Z,62.90
2019-04-20T22:39:31.357Z,62.80
2019-04-20T22:42:03.181Z,62.30
2019-04-20T22:44:30.376Z,62.90
2019-04-20T22:46:58.523Z,62.90
2019-04-20T22:49:43.066Z,63.00
2019-04-20T22:52:05.881Z,63.20
2019-04-20T22:54:44.652Z,63.30
2019-04-20T22:57:05.759Z,63.20
2019-04-20T22:59:38.315Z,63.30
2019-04-20T23:02:01.201Z,63.50
2019-04-20T23:04:30.767Z,63.60
2019-04-20T23:07:00.986Z,63.70
2019-04-20T23:09:32.780Z,63.80
2019-04-20T23:12:08.033Z,64.00
2019-04-20T23:14:32.005Z,64.00
2019-04-20T23:17:04.119Z,64.20
2019-04-20T23:19:41.571Z,64.30
2019-04-20T23:22:07.060Z,64.50
2019-04-20T23:24:34.977Z,64.70
2019-04-20T23:27:11.812Z,64.80
2019-04-20T23:29:37.921Z,64.90
2019-04-20T23:32:09.531Z,64.90
2019-04-20T23:34:37.529Z,65.20
2019-04-20T23:37:10.278Z,65.20
2019-04-20T23:39:40.806Z,65.30
2019-04-20T23:42:09.549Z,65.40
2019-04-20T23:44:52.074Z,65.60
2019-04-20T23:47:32.077Z,66.00
2019-04-20T23:50:19.480Z,65.60
2019-04-20T23:52:53.945Z,65.80
2019-04-20T23:55:08.512Z,65.80
2019-04-20T23:57:35.660Z,65.90
